Terminal Aerodrome Forecast
Issued by NWS

Home | Current Version | Previous Version | Text Only | Print | Product List | Glossary Off
Versions: 1 2 3 4 5 6 7 8 9 10 11 12 13 14 15 16

000
FTUS43 KMPX 250536 AAA
TAFRWF
TAF AMD
KRWF 250536Z 2506/2606 11009KT P6SM VCSH SCT110
     FM250800 14009KT P6SM -SHRA VCTS SCT060CB BKN090
     FM251100 16014G23KT P6SM SCT040 SCT200
     FM252300 18011KT P6SM SCT050 BKN250
     FM260100 24008KT P6SM SHRA VCTS BKN040CB=

USA.gov is the U.S. government's official web portal to all federal, state and local government web resources and services.